sensor_id;sensor_type;location;lat;lon;timestamp;P1;durP1;ratioP1;P2;durP2;ratioP2
11328;SDS011;5719;42.714;23.732;2023-04-09T00:00:44;7.97;;;7.03;;
11328;SDS011;5719;42.714;23.732;2023-04-09T00:03:11;7.68;;;6.88;;
11328;SDS011;5719;42.714;23.732;2023-04-09T00:05:39;7.63;;;6.82;;
11328;SDS011;5719;42.714;23.732;2023-04-09T00:08:07;7.75;;;6.95;;
11328;SDS011;5719;42.714;23.732;2023-04-09T00:10:34;8.70;;;7.07;;
11328;SDS011;5719;42.714;23.732;2023-04-09T00:13:01;7.82;;;7.03;;
11328;SDS011;5719;42.714;23.732;2023-04-09T00:15:28;8.82;;;7.03;;
11328;SDS011;5719;42.714;23.732;2023-04-09T00:17:55;8.85;;;6.95;;
11328;SDS011;5719;42.714;23.732;2023-04-09T00:20:22;7.32;;;6.50;;
11328;SDS011;5719;42.714;23.732;2023-04-09T00:22:49;8.02;;;6.95;;
11328;SDS011;5719;42.714;23.732;2023-04-09T00:25:17;7.18;;;6.30;;
11328;SDS011;5719;42.714;23.732;2023-04-09T00:27:45;8.00;;;6.53;;
11328;SDS011;5719;42.714;23.732;2023-04-09T00:30:12;10.63;;;8.18;;
11328;SDS011;5719;42.714;23.732;2023-04-09T00:32:39;13.60;;;7.95;;
11328;SDS011;5719;42.714;23.732;2023-04-09T00:35:06;10.25;;;8.35;;
11328;SDS011;5719;42.714;23.732;2023-04-09T00:37:33;8.73;;;7.65;;
11328;SDS011;5719;42.714;23.732;2023-04-09T00:40:00;9.65;;;8.00;;
11328;SDS011;5719;42.714;23.732;2023-04-09T00:42:31;9.25;;;7.63;;
11328;SDS011;5719;42.714;23.732;2023-04-09T00:44:58;12.52;;;8.73;;
11328;SDS011;5719;42.714;23.732;2023-04-09T00:47:25;18.65;;;11.30;;
11328;SDS011;5719;42.714;23.732;2023-04-09T00:49:53;16.83;;;10.48;;
11328;SDS011;5719;42.714;23.732;2023-04-09T00:52:20;13.80;;;9.45;;
11328;SDS011;5719;42.714;23.732;2023-04-09T00:54:48;11.93;;;8.45;;
11328;SDS011;5719;42.714;23.732;2023-04-09T00:57:15;10.00;;;7.53;;
11328;SDS011;5719;42.714;23.732;2023-04-09T00:59:44;8.18;;;6.68;;
11328;SDS011;5719;42.714;23.732;2023-04-09T01:02:11;10.00;;;7.57;;
11328;SDS011;5719;42.714;23.732;2023-04-09T01:04:39;8.85;;;7.85;;
11328;SDS011;5719;42.714;23.732;2023-04-09T01:07:09;9.77;;;7.80;;
11328;SDS011;5719;42.714;23.732;2023-04-09T01:12:13;7.32;;;6.50;;
11328;SDS011;5719;42.714;23.732;2023-04-09T01:14:48;7.78;;;6.97;;
11328;SDS011;5719;42.714;23.732;2023-04-09T01:17:21;7.68;;;6.82;;
11328;SDS011;5719;42.714;23.732;2023-04-09T01:19:57;7.43;;;6.65;;
11328;SDS011;5719;42.714;23.732;2023-04-09T01:22:30;8.73;;;7.10;;
11328;SDS011;5719;42.714;23.732;2023-04-09T01:25:06;7.82;;;6.80;;
11328;SDS011;5719;42.714;23.732;2023-04-09T01:27:43;8.02;;;7.22;;
11328;SDS011;5719;42.714;23.732;2023-04-09T01:30:26;9.70;;;7.40;;
11328;SDS011;5719;42.714;23.732;2023-04-09T01:32:54;9.18;;;7.32;;
11328;SDS011;5719;42.714;23.732;2023-04-09T01:35:23;7.65;;;6.85;;
11328;SDS011;5719;42.714;23.732;2023-04-09T01:37:53;7.97;;;7.07;;
11328;SDS011;5719;42.714;23.732;2023-04-09T01:40:22;8.77;;;7.45;;
11328;SDS011;5719;42.714;23.732;2023-04-09T01:42:49;9.18;;;7.50;;
11328;SDS011;5719;42.714;23.732;2023-04-09T01:45:17;8.88;;;7.55;;
11328;SDS011;5719;42.714;23.732;2023-04-09T01:47:47;9.85;;;7.60;;
11328;SDS011;5719;42.714;23.732;2023-04-09T01:50:14;11.15;;;9.25;;
11328;SDS011;5719;42.714;23.732;2023-04-09T01:52:42;12.10;;;9.40;;
11328;SDS011;5719;42.714;23.732;2023-04-09T01:55:09;12.32;;;9.65;;
11328;SDS011;5719;42.714;23.732;2023-04-09T01:57:36;10.60;;;8.38;;
11328;SDS011;5719;42.714;23.732;2023-04-09T02:00:03;9.15;;;8.02;;
11328;SDS011;5719;42.714;23.732;2023-04-09T02:02:32;8.48;;;7.57;;
11328;SDS011;5719;42.714;23.732;2023-04-09T02:05:09;12.25;;;8.60;;
11328;SDS011;5719;42.714;23.732;2023-04-09T02:07:41;10.90;;;8.35;;
11328;SDS011;5719;42.714;23.732;2023-04-09T02:10:11;12.95;;;9.25;;
11328;SDS011;5719;42.714;23.732;2023-04-09T02:12:43;12.02;;;8.70;;
11328;SDS011;5719;42.714;23.732;2023-04-09T02:15:14;11.50;;;8.48;;
11328;SDS011;5719;42.714;23.732;2023-04-09T02:17:41;11.75;;;8.88;;
11328;SDS011;5719;42.714;23.732;2023-04-09T02:20:10;12.13;;;9.57;;
11328;SDS011;5719;42.714;23.732;2023-04-09T02:22:41;12.45;;;9.18;;
11328;SDS011;5719;42.714;23.732;2023-04-09T02:25:08;10.40;;;8.38;;
11328;SDS011;5719;42.714;23.732;2023-04-09T02:27:35;12.52;;;9.48;;
11328;SDS011;5719;42.714;23.732;2023-04-09T02:30:02;11.88;;;8.90;;
11328;SDS011;5719;42.714;23.732;2023-04-09T02:32:29;11.90;;;9.55;;
11328;SDS011;5719;42.714;23.732;2023-04-09T02:34:56;11.98;;;9.38;;
11328;SDS011;5719;42.714;23.732;2023-04-09T02:37:24;14.23;;;9.93;;
11328;SDS011;5719;42.714;23.732;2023-04-09T02:39:51;12.80;;;10.05;;
11328;SDS011;5719;42.714;23.732;2023-04-09T02:42:18;14.88;;;10.35;;
11328;SDS011;5719;42.714;23.732;2023-04-09T02:44:45;11.43;;;9.48;;
11328;SDS011;5719;42.714;23.732;2023-04-09T02:47:12;12.10;;;9.60;;
11328;SDS011;5719;42.714;23.732;2023-04-09T02:49:39;12.70;;;10.18;;
11328;SDS011;5719;42.714;23.732;2023-04-09T02:52:06;13.77;;;9.77;;
11328;SDS011;5719;42.714;23.732;2023-04-09T02:54:36;12.23;;;10.18;;
11328;SDS011;5719;42.714;23.732;2023-04-09T02:57:03;13.80;;;10.35;;
11328;SDS011;5719;42.714;23.732;2023-04-09T02:59:30;12.02;;;9.80;;
11328;SDS011;5719;42.714;23.732;2023-04-09T03:01:58;12.13;;;9.98;;
11328;SDS011;5719;42.714;23.732;2023-04-09T03:04:25;13.25;;;9.73;;
11328;SDS011;5719;42.714;23.732;2023-04-09T03:06:52;14.65;;;10.45;;
11328;SDS011;5719;42.714;23.732;2023-04-09T03:09:18;11.52;;;9.77;;
11328;SDS011;5719;42.714;23.732;2023-04-09T03:11:47;13.55;;;10.05;;
11328;SDS011;5719;42.714;23.732;2023-04-09T03:14:14;13.10;;;10.07;;
11328;SDS011;5719;42.714;23.732;2023-04-09T03:16:40;14.05;;;10.70;;
11328;SDS011;5719;42.714;23.732;2023-04-09T03:19:07;14.38;;;10.55;;
11328;SDS011;5719;42.714;23.732;2023-04-09T03:21:34;14.25;;;10.75;;
11328;SDS011;5719;42.714;23.732;2023-04-09T03:24:01;14.27;;;10.52;;
11328;SDS011;5719;42.714;23.732;2023-04-09T03:26:28;11.95;;;9.77;;
11328;SDS011;5719;42.714;23.732;2023-04-09T03:29:01;14.02;;;10.48;;
11328;SDS011;5719;42.714;23.732;2023-04-09T03:31:28;14.20;;;11.23;;
11328;SDS011;5719;42.714;23.732;2023-04-09T03:33:55;13.52;;;10.68;;
11328;SDS011;5719;42.714;23.732;2023-04-09T03:36:22;14.93;;;11.27;;
11328;SDS011;5719;42.714;23.732;2023-04-09T03:38:49;14.50;;;10.43;;
11328;SDS011;5719;42.714;23.732;2023-04-09T03:41:16;12.80;;;10.48;;
11328;SDS011;5719;42.714;23.732;2023-04-09T03:43:42;13.23;;;10.48;;
11328;SDS011;5719;42.714;23.732;2023-04-09T03:46:14;13.82;;;10.70;;
11328;SDS011;5719;42.714;23.732;2023-04-09T03:48:41;17.52;;;10.82;;
11328;SDS011;5719;42.714;23.732;2023-04-09T03:51:10;13.10;;;10.00;;
11328;SDS011;5719;42.714;23.732;2023-04-09T03:53:37;12.52;;;9.80;;
11328;SDS011;5719;42.714;23.732;2023-04-09T03:56:05;12.27;;;9.40;;
11328;SDS011;5719;42.714;23.732;2023-04-09T03:58:32;13.52;;;9.80;;
11328;SDS011;5719;42.714;23.732;2023-04-09T04:00:59;14.93;;;10.43;;
11328;SDS011;5719;42.714;23.732;2023-04-09T04:03:27;13.85;;;10.73;;
11328;SDS011;5719;42.714;23.732;2023-04-09T04:05:58;16.58;;;11.48;;
11328;SDS011;5719;42.714;23.732;2023-04-09T04:08:26;17.20;;;12.50;;
11328;SDS011;5719;42.714;23.732;2023-04-09T04:10:53;22.75;;;13.63;;
11328;SDS011;5719;42.714;23.732;2023-04-09T04:13:20;19.27;;;14.02;;
11328;SDS011;5719;42.714;23.732;2023-04-09T04:15:47;21.52;;;14.30;;
11328;SDS011;5719;42.714;23.732;2023-04-09T04:18:14;21.30;;;14.07;;
11328;SDS011;5719;42.714;23.732;2023-04-09T04:20:42;19.00;;;14.35;;
11328;SDS011;5719;42.714;23.732;2023-04-09T04:23:09;17.88;;;13.82;;
11328;SDS011;5719;42.714;23.732;2023-04-09T04:25:39;18.02;;;13.23;;
11328;SDS011;5719;42.714;23.732;2023-04-09T04:28:06;18.13;;;12.20;;
11328;SDS011;5719;42.714;23.732;2023-04-09T04:30:33;26.25;;;12.85;;
11328;SDS011;5719;42.714;23.732;2023-04-09T04:33:00;19.40;;;12.75;;
11328;SDS011;5719;42.714;23.732;2023-04-09T04:35:27;20.40;;;12.18;;
11328;SDS011;5719;42.714;23.732;2023-04-09T04:37:56;16.92;;;12.77;;
11328;SDS011;5719;42.714;23.732;2023-04-09T04:40:23;16.33;;;12.25;;
11328;SDS011;5719;42.714;23.732;2023-04-09T04:42:50;19.65;;;12.20;;
11328;SDS011;5719;42.714;23.732;2023-04-09T04:45:17;18.23;;;12.73;;
11328;SDS011;5719;42.714;23.732;2023-04-09T04:47:44;17.30;;;11.73;;
11328;SDS011;5719;42.714;23.732;2023-04-09T04:50:11;14.20;;;10.65;;
11328;SDS011;5719;42.714;23.732;2023-04-09T04:52:37;15.85;;;11.82;;
11328;SDS011;5719;42.714;23.732;2023-04-09T04:55:06;16.75;;;10.88;;
11328;SDS011;5719;42.714;23.732;2023-04-09T04:57:34;13.90;;;10.20;;
11328;SDS011;5719;42.714;23.732;2023-04-09T05:00:01;13.50;;;9.77;;
11328;SDS011;5719;42.714;23.732;2023-04-09T05:02:28;13.65;;;9.13;;
11328;SDS011;5719;42.714;23.732;2023-04-09T05:04:55;11.10;;;9.10;;
11328;SDS011;5719;42.714;23.732;2023-04-09T05:07:22;10.52;;;8.35;;
11328;SDS011;5719;42.714;23.732;2023-04-09T05:09:49;12.75;;;8.68;;
11328;SDS011;5719;42.714;23.732;2023-04-09T05:12:17;12.68;;;8.68;;
11328;SDS011;5719;42.714;23.732;2023-04-09T05:14:44;10.73;;;8.18;;
11328;SDS011;5719;42.714;23.732;2023-04-09T05:17:12;9.85;;;8.02;;
11328;SDS011;5719;42.714;23.732;2023-04-09T05:19:39;11.20;;;8.70;;
11328;SDS011;5719;42.714;23.732;2023-04-09T05:22:07;11.50;;;9.73;;
11328;SDS011;5719;42.714;23.732;2023-04-09T05:24:34;13.95;;;9.35;;
11328;SDS011;5719;42.714;23.732;2023-04-09T05:27:01;14.77;;;9.65;;
11328;SDS011;5719;42.714;23.732;2023-04-09T05:29:30;16.08;;;9.52;;
11328;SDS011;5719;42.714;23.732;2023-04-09T05:31:58;12.60;;;9.48;;
11328;SDS011;5719;42.714;23.732;2023-04-09T05:34:26;13.35;;;9.15;;
11328;SDS011;5719;42.714;23.732;2023-04-09T05:36:52;11.25;;;8.95;;
11328;SDS011;5719;42.714;23.732;2023-04-09T05:39:19;11.05;;;8.57;;
11328;SDS011;5719;42.714;23.732;2023-04-09T05:41:46;11.07;;;7.95;;
11328;SDS011;5719;42.714;23.732;2023-04-09T05:44:13;10.18;;;8.35;;
11328;SDS011;5719;42.714;23.732;2023-04-09T05:46:42;11.77;;;8.80;;
11328;SDS011;5719;42.714;23.732;2023-04-09T05:49:09;11.38;;;9.02;;
11328;SDS011;5719;42.714;23.732;2023-04-09T05:51:36;10.35;;;8.80;;
11328;SDS011;5719;42.714;23.732;2023-04-09T05:54:03;11.98;;;9.10;;
11328;SDS011;5719;42.714;23.732;2023-04-09T05:56:30;13.05;;;9.52;;
11328;SDS011;5719;42.714;23.732;2023-04-09T05:58:57;12.18;;;9.60;;
11328;SDS011;5719;42.714;23.732;2023-04-09T06:01:24;12.65;;;9.48;;
11328;SDS011;5719;42.714;23.732;2023-04-09T06:03:52;13.90;;;9.00;;
11328;SDS011;5719;42.714;23.732;2023-04-09T06:06:19;14.35;;;9.70;;
11328;SDS011;5719;42.714;23.732;2023-04-09T06:08:46;11.88;;;9.43;;
11328;SDS011;5719;42.714;23.732;2023-04-09T06:11:13;11.73;;;8.57;;
11328;SDS011;5719;42.714;23.732;2023-04-09T06:13:40;11.60;;;9.02;;
11328;SDS011;5719;42.714;23.732;2023-04-09T06:16:08;11.07;;;8.85;;
11328;SDS011;5719;42.714;23.732;2023-04-09T06:18:35;11.77;;;8.77;;
11328;SDS011;5719;42.714;23.732;2023-04-09T06:21:04;13.88;;;9.38;;
11328;SDS011;5719;42.714;23.732;2023-04-09T06:23:32;12.48;;;8.95;;
11328;SDS011;5719;42.714;23.732;2023-04-09T06:26:00;12.57;;;9.40;;
11328;SDS011;5719;42.714;23.732;2023-04-09T06:28:28;13.75;;;8.70;;
11328;SDS011;5719;42.714;23.732;2023-04-09T06:30:55;11.15;;;8.80;;
11328;SDS011;5719;42.714;23.732;2023-04-09T06:33:22;10.75;;;8.77;;
11328;SDS011;5719;42.714;23.732;2023-04-09T06:35:50;10.45;;;8.38;;
11328;SDS011;5719;42.714;23.732;2023-04-09T06:38:18;14.07;;;9.10;;
11328;SDS011;5719;42.714;23.732;2023-04-09T06:40:45;12.75;;;8.85;;
11328;SDS011;5719;42.714;23.732;2023-04-09T06:43:12;9.90;;;8.35;;
11328;SDS011;5719;42.714;23.732;2023-04-09T06:45:39;9.23;;;8.25;;
11328;SDS011;5719;42.714;23.732;2023-04-09T06:48:06;11.05;;;8.85;;
11328;SDS011;5719;42.714;23.732;2023-04-09T06:50:33;9.90;;;8.27;;
11328;SDS011;5719;42.714;23.732;2023-04-09T06:53:00;15.43;;;8.50;;
11328;SDS011;5719;42.714;23.732;2023-04-09T06:55:29;15.30;;;8.40;;
11328;SDS011;5719;42.714;23.732;2023-04-09T06:57:56;10.15;;;8.90;;
11328;SDS011;5719;42.714;23.732;2023-04-09T07:00:23;11.25;;;8.57;;
11328;SDS011;5719;42.714;23.732;2023-04-09T07:02:50;10.68;;;8.40;;
11328;SDS011;5719;42.714;23.732;2023-04-09T07:05:18;10.45;;;8.38;;
11328;SDS011;5719;42.714;23.732;2023-04-09T07:07:45;10.27;;;8.27;;
11328;SDS011;5719;42.714;23.732;2023-04-09T07:10:12;10.00;;;8.40;;
11328;SDS011;5719;42.714;23.732;2023-04-09T07:12:41;9.73;;;7.80;;
11328;SDS011;5719;42.714;23.732;2023-04-09T07:15:08;10.32;;;8.32;;
11328;SDS011;5719;42.714;23.732;2023-04-09T07:17:35;10.45;;;8.18;;
11328;SDS011;5719;42.714;23.732;2023-04-09T07:20:02;12.43;;;8.20;;
11328;SDS011;5719;42.714;23.732;2023-04-09T07:22:30;9.27;;;7.88;;
11328;SDS011;5719;42.714;23.732;2023-04-09T07:24:57;8.95;;;7.70;;
11328;SDS011;5719;42.714;23.732;2023-04-09T07:38:05;10.85;;;8.93;;
11328;SDS011;5719;42.714;23.732;2023-04-09T07:40:33;8.50;;;7.55;;
11328;SDS011;5719;42.714;23.732;2023-04-09T07:43:00;9.32;;;7.95;;
11328;SDS011;5719;42.714;23.732;2023-04-09T07:45:27;12.25;;;9.10;;
11328;SDS011;5719;42.714;23.732;2023-04-09T07:47:54;11.43;;;8.52;;
11328;SDS011;5719;42.714;23.732;2023-04-09T07:50:21;12.52;;;8.63;;
11328;SDS011;5719;42.714;23.732;2023-04-09T07:52:48;11.32;;;8.50;;
11328;SDS011;5719;42.714;23.732;2023-04-09T07:55:16;10.60;;;8.45;;
11328;SDS011;5719;42.714;23.732;2023-04-09T07:57:44;9.20;;;7.40;;
11328;SDS011;5719;42.714;23.732;2023-04-09T08:00:12;11.43;;;8.13;;
11328;SDS011;5719;42.714;23.732;2023-04-09T08:02:40;9.48;;;8.05;;
11328;SDS011;5719;42.714;23.732;2023-04-09T08:05:07;10.30;;;7.63;;
11328;SDS011;5719;42.714;23.732;2023-04-09T08:07:34;10.88;;;8.80;;
11328;SDS011;5719;42.714;23.732;2023-04-09T08:10:01;9.30;;;7.55;;
11328;SDS011;5719;42.714;23.732;2023-04-09T08:12:30;14.38;;;7.85;;
11328;SDS011;5719;42.714;23.732;2023-04-09T08:14:57;11.93;;;8.18;;
11328;SDS011;5719;42.714;23.732;2023-04-09T08:17:24;9.80;;;7.63;;
11328;SDS011;5719;42.714;23.732;2023-04-09T08:19:51;9.90;;;7.18;;
11328;SDS011;5719;42.714;23.732;2023-04-09T08:22:18;8.55;;;7.40;;
11328;SDS011;5719;42.714;23.732;2023-04-09T08:24:49;9.45;;;7.68;;
11328;SDS011;5719;42.714;23.732;2023-04-09T08:27:17;11.40;;;8.30;;
11328;SDS011;5719;42.714;23.732;2023-04-09T08:29:46;9.45;;;7.05;;
11328;SDS011;5719;42.714;23.732;2023-04-09T08:32:13;8.73;;;6.72;;
11328;SDS011;5719;42.714;23.732;2023-04-09T08:34:41;7.20;;;6.50;;
11328;SDS011;5719;42.714;23.732;2023-04-09T08:37:08;7.80;;;7.00;;
11328;SDS011;5719;42.714;23.732;2023-04-09T08:39:35;8.98;;;6.80;;
11328;SDS011;5719;42.714;23.732;2023-04-09T08:42:02;7.88;;;6.80;;
11328;SDS011;5719;42.714;23.732;2023-04-09T08:44:31;11.00;;;7.05;;
11328;SDS011;5719;42.714;23.732;2023-04-09T08:47:00;8.02;;;7.10;;
11328;SDS011;5719;42.714;23.732;2023-04-09T08:49:28;10.23;;;6.97;;
11328;SDS011;5719;42.714;23.732;2023-04-09T08:51:55;7.15;;;6.25;;
11328;SDS011;5719;42.714;23.732;2023-04-09T08:54:22;7.40;;;6.60;;
11328;SDS011;5719;42.714;23.732;2023-04-09T08:56:50;7.00;;;5.93;;
11328;SDS011;5719;42.714;23.732;2023-04-09T08:59:17;5.95;;;5.43;;
11328;SDS011;5719;42.714;23.732;2023-04-09T09:01:45;8.00;;;4.95;;
11328;SDS011;5719;42.714;23.732;2023-04-09T09:04:18;9.23;;;5.30;;
11328;SDS011;5719;42.714;23.732;2023-04-09T09:06:45;5.57;;;5.07;;
11328;SDS011;5719;42.714;23.732;2023-04-09T09:09:12;6.85;;;5.03;;
11328;SDS011;5719;42.714;23.732;2023-04-09T09:11:41;4.72;;;4.32;;
11328;SDS011;5719;42.714;23.732;2023-04-09T09:14:10;5.13;;;4.63;;
11328;SDS011;5719;42.714;23.732;2023-04-09T09:16:38;7.32;;;4.32;;
11328;SDS011;5719;42.714;23.732;2023-04-09T09:19:08;5.00;;;4.50;;
11328;SDS011;5719;42.714;23.732;2023-04-09T09:21:36;5.80;;;4.30;;
11328;SDS011;5719;42.714;23.732;2023-04-09T09:24:15;4.53;;;4.13;;
11328;SDS011;5719;42.714;23.732;2023-04-09T09:26:43;4.63;;;4.20;;
11328;SDS011;5719;42.714;23.732;2023-04-09T09:29:10;4.82;;;4.18;;
11328;SDS011;5719;42.714;23.732;2023-04-09T09:31:44;4.57;;;4.00;;
11328;SDS011;5719;42.714;23.732;2023-04-09T09:34:13;4.28;;;3.88;;
11328;SDS011;5719;42.714;23.732;2023-04-09T09:36:42;4.28;;;3.85;;
11328;SDS011;5719;42.714;23.732;2023-04-09T09:39:11;3.85;;;3.55;;
11328;SDS011;5719;42.714;23.732;2023-04-09T09:41:39;3.90;;;3.60;;
11328;SDS011;5719;42.714;23.732;2023-04-09T09:44:06;4.10;;;3.70;;
11328;SDS011;5719;42.714;23.732;2023-04-09T09:46:34;4.40;;;3.60;;
11328;SDS011;5719;42.714;23.732;2023-04-09T09:49:02;5.18;;;3.70;;
11328;SDS011;5719;42.714;23.732;2023-04-09T09:51:30;4.32;;;3.90;;
11328;SDS011;5719;42.714;23.732;2023-04-09T09:54:00;4.93;;;3.60;;
11328;SDS011;5719;42.714;23.732;2023-04-09T09:56:29;4.00;;;3.70;;
11328;SDS011;5719;42.714;23.732;2023-04-09T09:59:01;3.78;;;3.45;;
11328;SDS011;5719;42.714;23.732;2023-04-09T10:01:32;3.40;;;3.15;;
11328;SDS011;5719;42.714;23.732;2023-04-09T10:04:00;4.00;;;3.58;;
11328;SDS011;5719;42.714;23.732;2023-04-09T10:06:29;4.35;;;3.42;;
11328;SDS011;5719;42.714;23.732;2023-04-09T10:09:02;4.25;;;3.85;;
11328;SDS011;5719;42.714;23.732;2023-04-09T10:11:31;5.07;;;3.58;;
11328;SDS011;5719;42.714;23.732;2023-04-09T10:13:59;4.75;;;3.85;;
11328;SDS011;5719;42.714;23.732;2023-04-09T10:16:28;4.40;;;4.00;;
11328;SDS011;5719;42.714;23.732;2023-04-09T10:18:55;3.97;;;3.67;;
11328;SDS011;5719;42.714;23.732;2023-04-09T10:21:25;4.78;;;4.30;;
11328;SDS011;5719;42.714;23.732;2023-04-09T10:23:58;4.18;;;3.75;;
11328;SDS011;5719;42.714;23.732;2023-04-09T10:26:31;4.38;;;3.97;;
11328;SDS011;5719;42.714;23.732;2023-04-09T10:29:03;6.13;;;3.95;;
11328;SDS011;5719;42.714;23.732;2023-04-09T10:31:45;4.25;;;3.88;;
11328;SDS011;5719;42.714;23.732;2023-04-09T10:34:20;3.92;;;3.60;;
11328;SDS011;5719;42.714;23.732;2023-04-09T10:36:51;4.80;;;4.38;;
11328;SDS011;5719;42.714;23.732;2023-04-09T10:39:24;5.05;;;3.88;;
11328;SDS011;5719;42.714;23.732;2023-04-09T10:41:55;4.25;;;3.85;;
11328;SDS011;5719;42.714;23.732;2023-04-09T10:44:23;5.57;;;3.85;;
11328;SDS011;5719;42.714;23.732;2023-04-09T10:46:52;4.75;;;4.13;;
11328;SDS011;5719;42.714;23.732;2023-04-09T10:49:19;5.63;;;4.32;;
11328;SDS011;5719;42.714;23.732;2023-04-09T10:51:49;5.60;;;4.05;;
11328;SDS011;5719;42.714;23.732;2023-04-09T10:57:15;4.25;;;3.80;;
11328;SDS011;5719;42.714;23.732;2023-04-09T10:59:44;4.55;;;4.15;;
11328;SDS011;5719;42.714;23.732;2023-04-09T11:02:23;3.70;;;3.35;;
11328;SDS011;5719;42.714;23.732;2023-04-09T11:05:17;3.30;;;3.00;;
11328;SDS011;5719;42.714;23.732;2023-04-09T11:07:50;3.40;;;3.10;;
11328;SDS011;5719;42.714;23.732;2023-04-09T11:10:23;3.65;;;3.20;;
11328;SDS011;5719;42.714;23.732;2023-04-09T11:12:52;3.20;;;3.00;;
11328;SDS011;5719;42.714;23.732;2023-04-09T11:15:19;3.45;;;3.15;;
11328;SDS011;5719;42.714;23.732;2023-04-09T11:17:46;3.83;;;3.40;;
11328;SDS011;5719;42.714;23.732;2023-04-09T11:20:15;3.28;;;3.05;;
11328;SDS011;5719;42.714;23.732;2023-04-09T11:22:44;3.22;;;3.03;;
11328;SDS011;5719;42.714;23.732;2023-04-09T11:25:16;3.70;;;3.40;;
11328;SDS011;5719;42.714;23.732;2023-04-09T11:27:45;3.45;;;3.15;;
11328;SDS011;5719;42.714;23.732;2023-04-09T11:30:13;3.15;;;2.95;;
11328;SDS011;5719;42.714;23.732;2023-04-09T11:32:41;3.47;;;3.20;;
11328;SDS011;5719;42.714;23.732;2023-04-09T11:35:11;4.28;;;3.10;;
11328;SDS011;5719;42.714;23.732;2023-04-09T11:37:39;3.38;;;3.08;;
11328;SDS011;5719;42.714;23.732;2023-04-09T11:40:08;3.65;;;3.35;;
11328;SDS011;5719;42.714;23.732;2023-04-09T11:42:41;3.53;;;3.22;;
11328;SDS011;5719;42.714;23.732;2023-04-09T11:45:10;3.22;;;3.00;;
11328;SDS011;5719;42.714;23.732;2023-04-09T11:47:40;3.30;;;3.10;;
11328;SDS011;5719;42.714;23.732;2023-04-09T11:50:09;3.20;;;2.95;;
11328;SDS011;5719;42.714;23.732;2023-04-09T11:52:37;3.78;;;3.30;;
11328;SDS011;5719;42.714;23.732;2023-04-09T11:55:05;3.80;;;3.50;;
11328;SDS011;5719;42.714;23.732;2023-04-09T11:57:38;3.65;;;3.20;;
11328;SDS011;5719;42.714;23.732;2023-04-09T12:00:08;3.92;;;3.20;;
11328;SDS011;5719;42.714;23.732;2023-04-09T12:02:40;4.75;;;3.13;;
11328;SDS011;5719;42.714;23.732;2023-04-09T12:05:09;4.68;;;3.20;;
11328;SDS011;5719;42.714;23.732;2023-04-09T12:07:40;3.15;;;2.95;;
11328;SDS011;5719;42.714;23.732;2023-04-09T12:10:11;3.10;;;2.90;;
11328;SDS011;5719;42.714;23.732;2023-04-09T12:12:42;2.95;;;2.75;;
11328;SDS011;5719;42.714;23.732;2023-04-09T12:15:11;3.10;;;2.80;;
11328;SDS011;5719;42.714;23.732;2023-04-09T12:17:48;3.58;;;3.28;;
11328;SDS011;5719;42.714;23.732;2023-04-09T12:20:28;3.92;;;3.63;;
11328;SDS011;5719;42.714;23.732;2023-04-09T12:22:56;6.40;;;5.10;;
11328;SDS011;5719;42.714;23.732;2023-04-09T12:25:24;7.15;;;5.45;;
11328;SDS011;5719;42.714;23.732;2023-04-09T12:27:51;5.45;;;4.57;;
11328;SDS011;5719;42.714;23.732;2023-04-09T12:30:18;5.80;;;5.25;;
11328;SDS011;5719;42.714;23.732;2023-04-09T12:32:45;7.00;;;5.78;;
11328;SDS011;5719;42.714;23.732;2023-04-09T12:35:14;6.78;;;5.40;;
11328;SDS011;5719;42.714;23.732;2023-04-09T12:37:41;5.88;;;5.28;;
11328;SDS011;5719;42.714;23.732;2023-04-09T12:40:08;5.85;;;5.25;;
11328;SDS011;5719;42.714;23.732;2023-04-09T12:42:38;6.10;;;5.38;;
11328;SDS011;5719;42.714;23.732;2023-04-09T12:45:06;5.40;;;4.88;;
11328;SDS011;5719;42.714;23.732;2023-04-09T12:47:36;6.18;;;5.28;;
11328;SDS011;5719;42.714;23.732;2023-04-09T12:50:04;5.75;;;5.07;;
11328;SDS011;5719;42.714;23.732;2023-04-09T12:52:33;5.93;;;5.38;;
11328;SDS011;5719;42.714;23.732;2023-04-09T12:55:01;6.40;;;5.38;;
11328;SDS011;5719;42.714;23.732;2023-04-09T12:57:28;5.75;;;5.25;;
11328;SDS011;5719;42.714;23.732;2023-04-09T12:59:56;5.63;;;5.15;;
11328;SDS011;5719;42.714;23.732;2023-04-09T13:02:23;5.82;;;5.32;;
11328;SDS011;5719;42.714;23.732;2023-04-09T13:04:50;6.22;;;4.85;;
11328;SDS011;5719;42.714;23.732;2023-04-09T13:07:18;6.05;;;4.85;;
11328;SDS011;5719;42.714;23.732;2023-04-09T13:09:47;6.80;;;5.65;;
11328;SDS011;5719;42.714;23.732;2023-04-09T13:12:14;5.85;;;5.07;;
11328;SDS011;5719;42.714;23.732;2023-04-09T13:14:42;5.15;;;4.75;;
11328;SDS011;5719;42.714;23.732;2023-04-09T13:17:09;5.43;;;4.93;;
11328;SDS011;5719;42.714;23.732;2023-04-09T13:19:36;5.05;;;4.55;;
11328;SDS011;5719;42.714;23.732;2023-04-09T13:22:03;5.20;;;4.80;;
11328;SDS011;5719;42.714;23.732;2023-04-09T13:24:32;9.02;;;6.07;;
11328;SDS011;5719;42.714;23.732;2023-04-09T13:27:01;6.28;;;5.35;;
11328;SDS011;5719;42.714;23.732;2023-04-09T13:29:28;5.78;;;5.13;;
11328;SDS011;5719;42.714;23.732;2023-04-09T13:31:55;6.18;;;5.57;;
11328;SDS011;5719;42.714;23.732;2023-04-09T13:34:22;6.53;;;5.93;;
11328;SDS011;5719;42.714;23.732;2023-04-09T13:36:50;6.95;;;6.32;;
11328;SDS011;5719;42.714;23.732;2023-04-09T13:39:17;7.50;;;6.70;;
11328;SDS011;5719;42.714;23.732;2023-04-09T13:41:44;9.00;;;7.20;;
11328;SDS011;5719;42.714;23.732;2023-04-09T13:44:12;7.55;;;6.63;;
11328;SDS011;5719;42.714;23.732;2023-04-09T13:46:39;10.45;;;7.47;;
11328;SDS011;5719;42.714;23.732;2023-04-09T13:49:06;8.13;;;7.18;;
11328;SDS011;5719;42.714;23.732;2023-04-09T13:51:33;8.50;;;7.65;;
11328;SDS011;5719;42.714;23.732;2023-04-09T13:54:00;8.80;;;7.90;;
11328;SDS011;5719;42.714;23.732;2023-04-09T13:56:28;8.02;;;7.22;;
11328;SDS011;5719;42.714;23.732;2023-04-09T13:58:56;8.82;;;7.93;;
11328;SDS011;5719;42.714;23.732;2023-04-09T14:01:25;9.70;;;8.10;;
11328;SDS011;5719;42.714;23.732;2023-04-09T14:03:52;8.07;;;7.05;;
11328;SDS011;5719;42.714;23.732;2023-04-09T14:06:19;8.60;;;7.70;;
11328;SDS011;5719;42.714;23.732;2023-04-09T14:08:46;7.50;;;6.75;;
11328;SDS011;5719;42.714;23.732;2023-04-09T14:11:13;7.50;;;6.72;;
11328;SDS011;5719;42.714;23.732;2023-04-09T14:13:40;9.63;;;7.40;;
11328;SDS011;5719;42.714;23.732;2023-04-09T14:16:08;7.43;;;6.70;;
11328;SDS011;5719;42.714;23.732;2023-04-09T14:18:36;7.03;;;6.38;;
11328;SDS011;5719;42.714;23.732;2023-04-09T14:21:04;7.85;;;7.05;;
11328;SDS011;5719;42.714;23.732;2023-04-09T14:23:31;8.98;;;8.07;;
11328;SDS011;5719;42.714;23.732;2023-04-09T14:25:59;7.72;;;6.93;;
11328;SDS011;5719;42.714;23.732;2023-04-09T14:28:26;8.10;;;7.32;;
11328;SDS011;5719;42.714;23.732;2023-04-09T14:30:53;9.00;;;7.18;;
11328;SDS011;5719;42.714;23.732;2023-04-09T14:33:20;7.40;;;6.60;;
11328;SDS011;5719;42.714;23.732;2023-04-09T14:35:48;7.60;;;6.80;;
11328;SDS011;5719;42.714;23.732;2023-04-09T14:38:15;7.00;;;6.28;;
11328;SDS011;5719;42.714;23.732;2023-04-09T14:40:42;6.57;;;5.88;;
11328;SDS011;5719;42.714;23.732;2023-04-09T14:43:09;6.50;;;5.90;;
11328;SDS011;5719;42.714;23.732;2023-04-09T14:45:36;7.35;;;6.65;;
11328;SDS011;5719;42.714;23.732;2023-04-09T14:48:03;9.27;;;6.40;;
11328;SDS011;5719;42.714;23.732;2023-04-09T14:50:30;9.38;;;6.90;;
11328;SDS011;5719;42.714;23.732;2023-04-09T14:52:59;8.27;;;6.95;;
11328;SDS011;5719;42.714;23.732;2023-04-09T14:55:26;7.20;;;6.43;;
11328;SDS011;5719;42.714;23.732;2023-04-09T14:57:53;7.32;;;6.63;;
11328;SDS011;5719;42.714;23.732;2023-04-09T15:00:20;8.60;;;6.85;;
11328;SDS011;5719;42.714;23.732;2023-04-09T15:02:47;7.43;;;6.72;;